sensor_id;sensor_type;location;lat;lon;timestamp;P1;durP1;ratioP1;P2;durP2;ratioP2
8219;SDS011;4151;51.110;7.020;2022-12-19T00:00:20;51.47;;;18.20;;
8219;SDS011;4151;51.110;7.020;2022-12-19T00:02:45;51.70;;;18.60;;
8219;SDS011;4151;51.110;7.020;2022-12-19T00:05:11;49.70;;;18.50;;
8219;SDS011;4151;51.110;7.020;2022-12-19T00:07:37;46.83;;;19.53;;
8219;SDS011;4151;51.110;7.020;2022-12-19T00:10:03;42.27;;;17.90;;
8219;SDS011;4151;51.110;7.020;2022-12-19T00:12:29;47.50;;;19.73;;
8219;SDS011;4151;51.110;7.020;2022-12-19T00:14:55;52.77;;;20.47;;
8219;SDS011;4151;51.110;7.020;2022-12-19T00:17:20;39.93;;;17.33;;
8219;SDS011;4151;51.110;7.020;2022-12-19T00:19:46;47.17;;;19.50;;
8219;SDS011;4151;51.110;7.020;2022-12-19T00:22:12;38.83;;;17.23;;
8219;SDS011;4151;51.110;7.020;2022-12-19T00:24:38;41.90;;;19.17;;
8219;SDS011;4151;51.110;7.020;2022-12-19T00:27:03;47.10;;;18.40;;
8219;SDS011;4151;51.110;7.020;2022-12-19T00:29:29;46.77;;;17.80;;
8219;SDS011;4151;51.110;7.020;2022-12-19T00:31:54;49.97;;;19.80;;
8219;SDS011;4151;51.110;7.020;2022-12-19T00:34:21;55.43;;;18.67;;
8219;SDS011;4151;51.110;7.020;2022-12-19T00:36:47;43.17;;;18.63;;
8219;SDS011;4151;51.110;7.020;2022-12-19T00:39:12;44.50;;;18.57;;
8219;SDS011;4151;51.110;7.020;2022-12-19T00:41:38;42.90;;;18.40;;
8219;SDS011;4151;51.110;7.020;2022-12-19T00:44:05;40.83;;;18.17;;
8219;SDS011;4151;51.110;7.020;2022-12-19T00:46:33;45.43;;;18.67;;
8219;SDS011;4151;51.110;7.020;2022-12-19T00:48:59;46.20;;;19.57;;
8219;SDS011;4151;51.110;7.020;2022-12-19T00:51:26;47.17;;;19.23;;
8219;SDS011;4151;51.110;7.020;2022-12-19T00:53:54;46.07;;;19.30;;
8219;SDS011;4151;51.110;7.020;2022-12-19T00:56:22;48.50;;;19.10;;
8219;SDS011;4151;51.110;7.020;2022-12-19T00:58:49;46.20;;;16.93;;
8219;SDS011;4151;51.110;7.020;2022-12-19T01:01:16;44.40;;;18.87;;
8219;SDS011;4151;51.110;7.020;2022-12-19T01:03:46;51.97;;;19.47;;
8219;SDS011;4151;51.110;7.020;2022-12-19T01:06:12;47.57;;;17.93;;
8219;SDS011;4151;51.110;7.020;2022-12-19T01:08:38;41.87;;;17.80;;
8219;SDS011;4151;51.110;7.020;2022-12-19T01:11:04;48.47;;;20.10;;
8219;SDS011;4151;51.110;7.020;2022-12-19T01:13:31;48.77;;;20.50;;
8219;SDS011;4151;51.110;7.020;2022-12-19T01:16:02;46.37;;;18.07;;
8219;SDS011;4151;51.110;7.020;2022-12-19T01:18:29;51.93;;;19.40;;
8219;SDS011;4151;51.110;7.020;2022-12-19T01:20:57;45.57;;;18.10;;
8219;SDS011;4151;51.110;7.020;2022-12-19T01:23:27;41.10;;;17.60;;
8219;SDS011;4151;51.110;7.020;2022-12-19T01:25:53;49.20;;;19.17;;
8219;SDS011;4151;51.110;7.020;2022-12-19T01:28:19;41.37;;;16.87;;
8219;SDS011;4151;51.110;7.020;2022-12-19T01:30:45;47.00;;;19.60;;
8219;SDS011;4151;51.110;7.020;2022-12-19T01:33:12;46.17;;;17.53;;
8219;SDS011;4151;51.110;7.020;2022-12-19T01:35:39;42.90;;;20.90;;
8219;SDS011;4151;51.110;7.020;2022-12-19T01:38:06;49.27;;;17.77;;
8219;SDS011;4151;51.110;7.020;2022-12-19T01:40:36;45.50;;;20.07;;
8219;SDS011;4151;51.110;7.020;2022-12-19T01:43:02;54.77;;;21.23;;
8219;SDS011;4151;51.110;7.020;2022-12-19T01:45:28;48.03;;;18.47;;
8219;SDS011;4151;51.110;7.020;2022-12-19T01:53:22;54.97;;;20.43;;
8219;SDS011;4151;51.110;7.020;2022-12-19T01:55:50;45.87;;;17.87;;
8219;SDS011;4151;51.110;7.020;2022-12-19T01:58:16;49.83;;;20.03;;
8219;SDS011;4151;51.110;7.020;2022-12-19T02:00:42;55.00;;;21.63;;
8219;SDS011;4151;51.110;7.020;2022-12-19T02:03:10;46.90;;;22.23;;
8219;SDS011;4151;51.110;7.020;2022-12-19T02:05:42;48.47;;;19.47;;
8219;SDS011;4151;51.110;7.020;2022-12-19T02:08:09;54.00;;;22.17;;
8219;SDS011;4151;51.110;7.020;2022-12-19T02:10:35;49.47;;;20.27;;
8219;SDS011;4151;51.110;7.020;2022-12-19T02:13:00;49.40;;;20.97;;
8219;SDS011;4151;51.110;7.020;2022-12-19T02:15:27;48.87;;;20.27;;
8219;SDS011;4151;51.110;7.020;2022-12-19T02:18:02;61.20;;;22.53;;
8219;SDS011;4151;51.110;7.020;2022-12-19T02:20:50;53.93;;;20.87;;
8219;SDS011;4151;51.110;7.020;2022-12-19T02:23:38;52.90;;;21.30;;
8219;SDS011;4151;51.110;7.020;2022-12-19T02:26:25;55.70;;;22.40;;
8219;SDS011;4151;51.110;7.020;2022-12-19T02:32:06;63.57;;;22.23;;
8219;SDS011;4151;51.110;7.020;2022-12-19T02:34:49;56.97;;;20.40;;
8219;SDS011;4151;51.110;7.020;2022-12-19T02:37:48;56.73;;;20.17;;
8219;SDS011;4151;51.110;7.020;2022-12-19T02:40:31;50.67;;;21.27;;
8219;SDS011;4151;51.110;7.020;2022-12-19T02:43:03;56.87;;;21.10;;
8219;SDS011;4151;51.110;7.020;2022-12-19T02:45:31;53.13;;;21.73;;
8219;SDS011;4151;51.110;7.020;2022-12-19T02:48:00;60.23;;;21.67;;
8219;SDS011;4151;51.110;7.020;2022-12-19T02:50:34;48.83;;;20.53;;
8219;SDS011;4151;51.110;7.020;2022-12-19T02:53:00;58.30;;;19.83;;
8219;SDS011;4151;51.110;7.020;2022-12-19T02:55:26;52.33;;;20.60;;
8219;SDS011;4151;51.110;7.020;2022-12-19T03:00:51;40.83;;;19.43;;
8219;SDS011;4151;51.110;7.020;2022-12-19T03:06:24;39.00;;;17.90;;
8219;SDS011;4151;51.110;7.020;2022-12-19T03:09:01;44.87;;;18.80;;
8219;SDS011;4151;51.110;7.020;2022-12-19T03:11:48;49.80;;;18.73;;
8219;SDS011;4151;51.110;7.020;2022-12-19T03:14:18;46.20;;;17.60;;
8219;SDS011;4151;51.110;7.020;2022-12-19T03:16:45;45.07;;;18.07;;
8219;SDS011;4151;51.110;7.020;2022-12-19T03:19:11;48.20;;;18.13;;
8219;SDS011;4151;51.110;7.020;2022-12-19T03:21:42;43.40;;;18.63;;
8219;SDS011;4151;51.110;7.020;2022-12-19T03:24:10;39.37;;;18.20;;
8219;SDS011;4151;51.110;7.020;2022-12-19T03:26:38;45.70;;;18.33;;
8219;SDS011;4151;51.110;7.020;2022-12-19T03:29:14;44.40;;;18.37;;
8219;SDS011;4151;51.110;7.020;2022-12-19T03:31:45;42.17;;;18.67;;
8219;SDS011;4151;51.110;7.020;2022-12-19T03:34:15;48.20;;;16.97;;
8219;SDS011;4151;51.110;7.020;2022-12-19T03:36:55;32.57;;;15.10;;
8219;SDS011;4151;51.110;7.020;2022-12-19T03:39:25;44.07;;;17.97;;
8219;SDS011;4151;51.110;7.020;2022-12-19T03:41:51;40.30;;;17.20;;
8219;SDS011;4151;51.110;7.020;2022-12-19T03:44:38;42.77;;;18.00;;
8219;SDS011;4151;51.110;7.020;2022-12-19T03:47:22;43.10;;;17.80;;
8219;SDS011;4151;51.110;7.020;2022-12-19T03:49:52;35.13;;;17.17;;
8219;SDS011;4151;51.110;7.020;2022-12-19T03:52:22;41.63;;;17.70;;
8219;SDS011;4151;51.110;7.020;2022-12-19T03:55:20;39.63;;;17.23;;
8219;SDS011;4151;51.110;7.020;2022-12-19T04:00:32;41.77;;;16.63;;
8219;SDS011;4151;51.110;7.020;2022-12-19T04:03:00;43.97;;;18.73;;
8219;SDS011;4151;51.110;7.020;2022-12-19T04:05:28;48.53;;;17.10;;
8219;SDS011;4151;51.110;7.020;2022-12-19T04:07:55;44.40;;;18.30;;
8219;SDS011;4151;51.110;7.020;2022-12-19T04:10:25;47.47;;;19.17;;
8219;SDS011;4151;51.110;7.020;2022-12-19T04:12:53;47.77;;;20.53;;
8219;SDS011;4151;51.110;7.020;2022-12-19T04:15:34;51.67;;;19.33;;
8219;SDS011;4151;51.110;7.020;2022-12-19T04:18:07;41.80;;;18.00;;
8219;SDS011;4151;51.110;7.020;2022-12-19T04:20:37;44.07;;;19.30;;
8219;SDS011;4151;51.110;7.020;2022-12-19T04:25:59;41.00;;;19.70;;
8219;SDS011;4151;51.110;7.020;2022-12-19T04:28:33;42.87;;;18.67;;
8219;SDS011;4151;51.110;7.020;2022-12-19T04:31:06;49.47;;;18.83;;
8219;SDS011;4151;51.110;7.020;2022-12-19T04:33:35;50.83;;;18.23;;
8219;SDS011;4151;51.110;7.020;2022-12-19T04:36:00;46.40;;;19.47;;
8219;SDS011;4151;51.110;7.020;2022-12-19T04:38:26;48.30;;;19.10;;
8219;SDS011;4151;51.110;7.020;2022-12-19T04:40:51;43.40;;;19.43;;
8219;SDS011;4151;51.110;7.020;2022-12-19T04:43:17;49.73;;;19.83;;
8219;SDS011;4151;51.110;7.020;2022-12-19T04:45:43;56.10;;;21.83;;
8219;SDS011;4151;51.110;7.020;2022-12-19T04:48:08;62.43;;;21.90;;
8219;SDS011;4151;51.110;7.020;2022-12-19T04:50:34;55.40;;;24.53;;
8219;SDS011;4151;51.110;7.020;2022-12-19T04:53:00;54.50;;;20.30;;
8219;SDS011;4151;51.110;7.020;2022-12-19T04:55:25;67.83;;;22.80;;
8219;SDS011;4151;51.110;7.020;2022-12-19T04:57:51;50.47;;;18.07;;
8219;SDS011;4151;51.110;7.020;2022-12-19T05:00:17;52.63;;;21.13;;
8219;SDS011;4151;51.110;7.020;2022-12-19T05:02:42;48.03;;;20.83;;
8219;SDS011;4151;51.110;7.020;2022-12-19T05:05:08;50.27;;;20.53;;
8219;SDS011;4151;51.110;7.020;2022-12-19T05:07:34;49.60;;;20.47;;
8219;SDS011;4151;51.110;7.020;2022-12-19T05:09:59;48.00;;;21.40;;
8219;SDS011;4151;51.110;7.020;2022-12-19T05:12:25;52.40;;;21.10;;
8219;SDS011;4151;51.110;7.020;2022-12-19T05:14:52;48.53;;;21.70;;
8219;SDS011;4151;51.110;7.020;2022-12-19T05:17:18;38.70;;;18.17;;
8219;SDS011;4151;51.110;7.020;2022-12-19T05:19:43;47.83;;;20.40;;
8219;SDS011;4151;51.110;7.020;2022-12-19T05:22:09;62.97;;;22.13;;
8219;SDS011;4151;51.110;7.020;2022-12-19T05:24:34;60.27;;;22.00;;
8219;SDS011;4151;51.110;7.020;2022-12-19T05:27:00;52.80;;;21.30;;
8219;SDS011;4151;51.110;7.020;2022-12-19T05:29:25;62.17;;;24.27;;
8219;SDS011;4151;51.110;7.020;2022-12-19T05:31:51;51.07;;;20.47;;
8219;SDS011;4151;51.110;7.020;2022-12-19T05:34:17;59.97;;;22.77;;
8219;SDS011;4151;51.110;7.020;2022-12-19T05:36:42;61.60;;;24.70;;
8219;SDS011;4151;51.110;7.020;2022-12-19T05:39:08;55.53;;;20.70;;
8219;SDS011;4151;51.110;7.020;2022-12-19T05:41:35;50.73;;;19.90;;
8219;SDS011;4151;51.110;7.020;2022-12-19T05:44:01;57.50;;;22.53;;
8219;SDS011;4151;51.110;7.020;2022-12-19T05:46:26;60.10;;;23.50;;
8219;SDS011;4151;51.110;7.020;2022-12-19T05:48:52;53.43;;;21.90;;
8219;SDS011;4151;51.110;7.020;2022-12-19T05:51:18;64.53;;;23.80;;
8219;SDS011;4151;51.110;7.020;2022-12-19T05:53:44;55.97;;;22.90;;
8219;SDS011;4151;51.110;7.020;2022-12-19T05:56:11;54.47;;;21.57;;
8219;SDS011;4151;51.110;7.020;2022-12-19T05:58:39;55.53;;;22.37;;
8219;SDS011;4151;51.110;7.020;2022-12-19T06:01:07;56.63;;;23.37;;
8219;SDS011;4151;51.110;7.020;2022-12-19T06:03:35;62.33;;;23.07;;
8219;SDS011;4151;51.110;7.020;2022-12-19T06:06:05;53.10;;;21.40;;
8219;SDS011;4151;51.110;7.020;2022-12-19T06:08:33;53.70;;;21.20;;
8219;SDS011;4151;51.110;7.020;2022-12-19T06:11:00;59.47;;;22.20;;
8219;SDS011;4151;51.110;7.020;2022-12-19T06:13:28;55.63;;;23.30;;
8219;SDS011;4151;51.110;7.020;2022-12-19T06:16:00;56.93;;;23.60;;
8219;SDS011;4151;51.110;7.020;2022-12-19T06:18:28;59.17;;;21.80;;
8219;SDS011;4151;51.110;7.020;2022-12-19T06:20:55;67.03;;;22.27;;
8219;SDS011;4151;51.110;7.020;2022-12-19T06:23:22;55.63;;;22.40;;
8219;SDS011;4151;51.110;7.020;2022-12-19T06:25:48;57.17;;;21.10;;
8219;SDS011;4151;51.110;7.020;2022-12-19T06:28:13;63.47;;;24.77;;
8219;SDS011;4151;51.110;7.020;2022-12-19T06:30:39;60.93;;;26.47;;
8219;SDS011;4151;51.110;7.020;2022-12-19T06:33:04;63.00;;;22.40;;
8219;SDS011;4151;51.110;7.020;2022-12-19T06:35:30;54.93;;;22.07;;
8219;SDS011;4151;51.110;7.020;2022-12-19T06:37:55;59.33;;;22.80;;
8219;SDS011;4151;51.110;7.020;2022-12-19T06:40:21;59.63;;;22.10;;
8219;SDS011;4151;51.110;7.020;2022-12-19T06:43:05;63.70;;;19.73;;
8219;SDS011;4151;51.110;7.020;2022-12-19T06:45:31;61.80;;;24.00;;
8219;SDS011;4151;51.110;7.020;2022-12-19T06:47:56;53.03;;;20.87;;
8219;SDS011;4151;51.110;7.020;2022-12-19T06:50:22;50.07;;;20.07;;
8219;SDS011;4151;51.110;7.020;2022-12-19T06:52:48;54.67;;;21.83;;
8219;SDS011;4151;51.110;7.020;2022-12-19T06:55:13;41.60;;;18.63;;
8219;SDS011;4151;51.110;7.020;2022-12-19T06:57:39;51.03;;;20.70;;
8219;SDS011;4151;51.110;7.020;2022-12-19T07:00:10;52.10;;;19.70;;
8219;SDS011;4151;51.110;7.020;2022-12-19T07:02:37;54.40;;;19.67;;
8219;SDS011;4151;51.110;7.020;2022-12-19T07:05:04;57.10;;;20.90;;
8219;SDS011;4151;51.110;7.020;2022-12-19T07:07:31;56.23;;;20.43;;
8219;SDS011;4151;51.110;7.020;2022-12-19T07:09:57;49.50;;;20.50;;
8219;SDS011;4151;51.110;7.020;2022-12-19T07:12:23;48.73;;;19.97;;
8219;SDS011;4151;51.110;7.020;2022-12-19T07:14:49;54.00;;;21.13;;
8219;SDS011;4151;51.110;7.020;2022-12-19T07:17:14;45.30;;;17.87;;
8219;SDS011;4151;51.110;7.020;2022-12-19T07:19:40;52.53;;;23.10;;
8219;SDS011;4151;51.110;7.020;2022-12-19T07:22:06;47.63;;;21.13;;
8219;SDS011;4151;51.110;7.020;2022-12-19T07:24:33;52.97;;;20.20;;
8219;SDS011;4151;51.110;7.020;2022-12-19T07:26:59;48.30;;;20.37;;
8219;SDS011;4151;51.110;7.020;2022-12-19T07:29:25;46.20;;;20.67;;
8219;SDS011;4151;51.110;7.020;2022-12-19T07:31:51;48.20;;;20.83;;
8219;SDS011;4151;51.110;7.020;2022-12-19T07:34:16;49.93;;;20.53;;
8219;SDS011;4151;51.110;7.020;2022-12-19T07:36:42;42.90;;;19.93;;
8219;SDS011;4151;51.110;7.020;2022-12-19T07:39:07;42.53;;;19.73;;
8219;SDS011;4151;51.110;7.020;2022-12-19T07:41:35;58.03;;;20.97;;
8219;SDS011;4151;51.110;7.020;2022-12-19T07:44:01;44.13;;;19.37;;
8219;SDS011;4151;51.110;7.020;2022-12-19T07:46:27;48.03;;;18.03;;
8219;SDS011;4151;51.110;7.020;2022-12-19T07:48:54;45.80;;;19.80;;
8219;SDS011;4151;51.110;7.020;2022-12-19T07:51:19;50.40;;;21.67;;
8219;SDS011;4151;51.110;7.020;2022-12-19T07:53:45;55.13;;;20.30;;
8219;SDS011;4151;51.110;7.020;2022-12-19T07:56:10;47.50;;;19.03;;
8219;SDS011;4151;51.110;7.020;2022-12-19T07:58:36;46.57;;;19.37;;
8219;SDS011;4151;51.110;7.020;2022-12-19T08:01:01;41.63;;;18.67;;
8219;SDS011;4151;51.110;7.020;2022-12-19T08:03:27;56.00;;;21.70;;
8219;SDS011;4151;51.110;7.020;2022-12-19T08:05:59;46.87;;;21.30;;
8219;SDS011;4151;51.110;7.020;2022-12-19T08:08:26;42.43;;;18.53;;
8219;SDS011;4151;51.110;7.020;2022-12-19T08:10:52;45.93;;;19.83;;
8219;SDS011;4151;51.110;7.020;2022-12-19T08:13:18;68.20;;;29.20;;
8219;SDS011;4151;51.110;7.020;2022-12-19T08:15:43;51.17;;;21.17;;
8219;SDS011;4151;51.110;7.020;2022-12-19T08:18:09;45.17;;;19.10;;
8219;SDS011;4151;51.110;7.020;2022-12-19T08:20:34;43.40;;;18.10;;
8219;SDS011;4151;51.110;7.020;2022-12-19T08:23:00;47.63;;;18.90;;
8219;SDS011;4151;51.110;7.020;2022-12-19T08:25:25;42.07;;;18.90;;
8219;SDS011;4151;51.110;7.020;2022-12-19T08:27:51;46.03;;;19.80;;
8219;SDS011;4151;51.110;7.020;2022-12-19T08:30:16;44.87;;;17.73;;
8219;SDS011;4151;51.110;7.020;2022-12-19T08:32:42;50.70;;;18.30;;
8219;SDS011;4151;51.110;7.020;2022-12-19T08:35:09;41.03;;;17.23;;
8219;SDS011;4151;51.110;7.020;2022-12-19T08:37:35;41.77;;;18.60;;
8219;SDS011;4151;51.110;7.020;2022-12-19T08:40:00;42.07;;;18.87;;
8219;SDS011;4151;51.110;7.020;2022-12-19T08:42:26;37.93;;;17.17;;
8219;SDS011;4151;51.110;7.020;2022-12-19T08:44:51;41.50;;;18.60;;
8219;SDS011;4151;51.110;7.020;2022-12-19T08:47:17;53.80;;;18.63;;
8219;SDS011;4151;51.110;7.020;2022-12-19T08:49:42;40.60;;;18.37;;
8219;SDS011;4151;51.110;7.020;2022-12-19T08:52:08;44.87;;;19.27;;
8219;SDS011;4151;51.110;7.020;2022-12-19T08:54:34;39.30;;;17.40;;
8219;SDS011;4151;51.110;7.020;2022-12-19T08:56:59;43.77;;;19.30;;
8219;SDS011;4151;51.110;7.020;2022-12-19T08:59:25;33.03;;;16.40;;
8219;SDS011;4151;51.110;7.020;2022-12-19T09:01:51;36.03;;;18.73;;
8219;SDS011;4151;51.110;7.020;2022-12-19T09:04:16;49.60;;;18.83;;
8219;SDS011;4151;51.110;7.020;2022-12-19T09:06:42;39.93;;;17.73;;
8219;SDS011;4151;51.110;7.020;2022-12-19T09:09:07;40.93;;;18.70;;
8219;SDS011;4151;51.110;7.020;2022-12-19T09:11:33;50.87;;;18.57;;
8219;SDS011;4151;51.110;7.020;2022-12-19T09:13:59;43.10;;;18.60;;
8219;SDS011;4151;51.110;7.020;2022-12-19T09:16:25;50.40;;;19.00;;
8219;SDS011;4151;51.110;7.020;2022-12-19T09:18:53;36.53;;;17.57;;
8219;SDS011;4151;51.110;7.020;2022-12-19T09:21:22;42.57;;;18.37;;
8219;SDS011;4151;51.110;7.020;2022-12-19T09:23:50;44.17;;;17.53;;
8219;SDS011;4151;51.110;7.020;2022-12-19T09:26:17;49.97;;;21.50;;
8219;SDS011;4151;51.110;7.020;2022-12-19T09:28:44;44.43;;;18.37;;
8219;SDS011;4151;51.110;7.020;2022-12-19T09:31:12;47.43;;;20.17;;
8219;SDS011;4151;51.110;7.020;2022-12-19T09:33:40;57.93;;;24.93;;
8219;SDS011;4151;51.110;7.020;2022-12-19T09:36:06;37.30;;;18.03;;
8219;SDS011;4151;51.110;7.020;2022-12-19T09:38:35;42.53;;;18.80;;
8219;SDS011;4151;51.110;7.020;2022-12-19T09:41:05;38.87;;;17.10;;
8219;SDS011;4151;51.110;7.020;2022-12-19T09:46:37;40.07;;;17.13;;
8219;SDS011;4151;51.110;7.020;2022-12-19T09:49:25;36.10;;;15.47;;
8219;SDS011;4151;51.110;7.020;2022-12-19T09:52:02;34.43;;;17.33;;
8219;SDS011;4151;51.110;7.020;2022-12-19T09:54:36;37.10;;;16.80;;
8219;SDS011;4151;51.110;7.020;2022-12-19T09:57:15;43.07;;;15.97;;
8219;SDS011;4151;51.110;7.020;2022-12-19T09:59:47;34.47;;;14.70;;
8219;SDS011;4151;51.110;7.020;2022-12-19T10:05:40;30.60;;;14.87;;
8219;SDS011;4151;51.110;7.020;2022-12-19T10:08:33;32.90;;;15.20;;
8219;SDS011;4151;51.110;7.020;2022-12-19T10:11:41;39.80;;;15.90;;
8219;SDS011;4151;51.110;7.020;2022-12-19T10:22:10;37.13;;;15.83;;
8219;SDS011;4151;51.110;7.020;2022-12-19T10:24:51;36.43;;;15.37;;
8219;SDS011;4151;51.110;7.020;2022-12-19T10:30:25;54.07;;;20.03;;
8219;SDS011;4151;51.110;7.020;2022-12-19T10:33:11;34.33;;;15.40;;
8219;SDS011;4151;51.110;7.020;2022-12-19T10:35:53;33.03;;;14.40;;
8219;SDS011;4151;51.110;7.020;2022-12-19T10:42:16;37.10;;;15.37;;
8219;SDS011;4151;51.110;7.020;2022-12-19T10:44:50;38.63;;;15.70;;
8219;SDS011;4151;51.110;7.020;2022-12-19T10:47:18;27.97;;;14.20;;
8219;SDS011;4151;51.110;7.020;2022-12-19T10:49:44;37.00;;;16.20;;
8219;SDS011;4151;51.110;7.020;2022-12-19T10:52:10;28.90;;;14.30;;
8219;SDS011;4151;51.110;7.020;2022-12-19T10:57:16;31.57;;;15.83;;
8219;SDS011;4151;51.110;7.020;2022-12-19T10:59:56;35.37;;;14.33;;
8219;SDS011;4151;51.110;7.020;2022-12-19T11:02:45;32.90;;;14.50;;
8219;SDS011;4151;51.110;7.020;2022-12-19T11:10:49;29.57;;;13.00;;
8219;SDS011;4151;51.110;7.020;2022-12-19T11:15:51;32.27;;;13.13;;
8219;SDS011;4151;51.110;7.020;2022-12-19T11:18:18;30.47;;;13.03;;
8219;SDS011;4151;51.110;7.020;2022-12-19T11:20:55;32.23;;;12.77;;
8219;SDS011;4151;51.110;7.020;2022-12-19T11:23:21;27.67;;;12.50;;
8219;SDS011;4151;51.110;7.020;2022-12-19T11:26:01;26.93;;;12.47;;
8219;SDS011;4151;51.110;7.020;2022-12-19T11:28:32;22.07;;;11.37;;
8219;SDS011;4151;51.110;7.020;2022-12-19T11:31:09;36.70;;;14.00;;
8219;SDS011;4151;51.110;7.020;2022-12-19T11:33:45;24.43;;;12.67;;
8219;SDS011;4151;51.110;7.020;2022-12-19T11:39:17;24.73;;;12.37;;
8219;SDS011;4151;51.110;7.020;2022-12-19T11:45:17;29.90;;;13.00;;
8219;SDS011;4151;51.110;7.020;2022-12-19T11:47:53;34.53;;;15.00;;
8219;SDS011;4151;51.110;7.020;2022-12-19T12:01:17;32.47;;;13.73;;
8219;SDS011;4151;51.110;7.020;2022-12-19T12:06:54;33.30;;;14.07;;
8219;SDS011;4151;51.110;7.020;2022-12-19T12:12:26;32.63;;;14.00;;
8219;SDS011;4151;51.110;7.020;2022-12-19T12:18:02;29.67;;;14.03;;
8219;SDS011;4151;51.110;7.020;2022-12-19T12:23:16;28.57;;;12.37;;
8219;SDS011;4151;51.110;7.020;2022-12-19T12:31:32;23.43;;;12.30;;
8219;SDS011;4151;51.110;7.020;2022-12-19T12:34:19;26.50;;;13.10;;
8219;SDS011;4151;51.110;7.020;2022-12-19T12:42:56;27.60;;;14.07;;
8219;SDS011;4151;51.110;7.020;2022-12-19T12:45:43;33.00;;;14.60;;
8219;SDS011;4151;51.110;7.020;2022-12-19T12:48:15;45.13;;;18.33;;
8219;SDS011;4151;51.110;7.020;2022-12-19T12:50:46;22.60;;;11.67;;
8219;SDS011;4151;51.110;7.020;2022-12-19T12:53:15;25.30;;;11.83;;
8219;SDS011;4151;51.110;7.020;2022-12-19T12:55:43;26.13;;;15.00;;
8219;SDS011;4151;51.110;7.020;2022-12-19T13:01:28;20.10;;;10.17;;
8219;SDS011;4151;51.110;7.020;2022-12-19T13:03:58;22.17;;;10.27;;
8219;SDS011;4151;51.110;7.020;2022-12-19T13:09:23;22.23;;;11.00;;
8219;SDS011;4151;51.110;7.020;2022-12-19T13:14:48;21.27;;;11.17;;
8219;SDS011;4151;51.110;7.020;2022-12-19T13:22:39;17.50;;;9.70;;
8219;SDS011;4151;51.110;7.020;2022-12-19T13:27:50;14.93;;;8.80;;
8219;SDS011;4151;51.110;7.020;2022-12-19T13:30:26;21.30;;;8.40;;
8219;SDS011;4151;51.110;7.020;2022-12-19T13:38:00;16.30;;;9.40;;
8219;SDS011;4151;51.110;7.020;2022-12-19T13:46:21;17.17;;;9.03;;
8219;SDS011;4151;51.110;7.020;2022-12-19T13:49:04;21.23;;;8.80;;
8219;SDS011;4151;51.110;7.020;2022-12-19T13:51:55;21.33;;;11.37;;
8219;SDS011;4151;51.110;7.020;2022-12-19T13:54:27;23.00;;;9.70;;
8219;SDS011;4151;51.110;7.020;2022-12-19T13:56:56;17.87;;;8.83;;
8219;SDS011;4151;51.110;7.020;2022-12-19T13:59:24;18.50;;;9.87;;
8219;SDS011;4151;51.110;7.020;2022-12-19T14:01:52;22.20;;;8.90;;
8219;SDS011;4151;51.110;7.020;2022-12-19T14:04:26;18.80;;;9.37;;
8219;SDS011;4151;51.110;7.020;2022-12-19T14:06:59;20.43;;;9.30;;
8219;SDS011;4151;51.110;7.020;2022-12-19T14:09:38;16.10;;;8.90;;
8219;SDS011;4151;51.110;7.020;2022-12-19T14:12:13;21.53;;;9.50;;
8219;SDS011;4151;51.110;7.020;2022-12-19T14:17:52;18.03;;;9.30;;
8219;SDS011;4151;51.110;7.020;2022-12-19T14:20:23;17.50;;;9.43;;
8219;SDS011;4151;51.110;7.020;2022-12-19T14:22:59;16.70;;;8.10;;
8219;SDS011;4151;51.110;7.020;2022-12-19T14:25:29;20.53;;;9.67;;
8219;SDS011;4151;51.110;7.020;2022-12-19T14:28:10;16.10;;;8.43;;
8219;SDS011;4151;51.110;7.020;2022-12-19T14:30:41;16.77;;;8.20;;
8219;SDS011;4151;51.110;7.020;2022-12-19T14:33:18;22.77;;;8.83;;
8219;SDS011;4151;51.110;7.020;2022-12-19T14:35:48;13.80;;;7.90;;
8219;SDS011;4151;51.110;7.020;2022-12-19T14:38:20;15.43;;;9.23;;
8219;SDS011;4151;51.110;7.020;2022-12-19T14:40:50;21.67;;;9.40;;
8219;SDS011;4151;51.110;7.020;2022-12-19T14:43:23;14.73;;;8.07;;
8219;SDS011;4151;51.110;7.020;2022-12-19T14:46:12;22.07;;;10.20;;
8219;SDS011;4151;51.110;7.020;2022-12-19T14:48:48;15.57;;;8.17;;
8219;SDS011;4151;51.110;7.020;2022-12-19T14:51:34;26.27;;;12.80;;
8219;SDS011;4151;51.110;7.020;2022-12-19T14:56:53;17.00;;;9.07;;
8219;SDS011;4151;51.110;7.020;2022-12-19T15:01:53;22.47;;;9.50;;
8219;SDS011;4151;51.110;7.020;2022-12-19T15:04:23;15.53;;;8.33;;
8219;SDS011;4151;51.110;7.020;2022-12-19T15:06:52;17.10;;;9.20;;
8219;SDS011;4151;51.110;7.020;2022-12-19T15:09:19;17.20;;;8.13;;
8219;SDS011;4151;51.110;7.020;2022-12-19T15:11:46;22.70;;;9.47;;
8219;SDS011;4151;51.110;7.020;2022-12-19T15:14:45;16.83;;;8.57;;
8219;SDS011;4151;51.110;7.020;2022-12-19T15:17:19;15.00;;;7.67;;
8219;SDS011;4151;51.110;7.020;2022-12-19T15:19:47;19.17;;;9.10;;
8219;SDS011;4151;51.110;7.020;2022-12-19T15:22:13;16.70;;;7.83;;
8219;SDS011;4151;51.110;7.020;2022-12-19T15:24:39;16.20;;;8.43;;
8219;SDS011;4151;51.110;7.020;2022-12-19T15:27:08;12.37;;;7.00;;
8219;SDS011;4151;51.110;7.020;2022-12-19T15:29:40;15.50;;;8.30;;
8219;SDS011;4151;51.110;7.020;2022-12-19T15:32:13;15.83;;;8.00;;
8219;SDS011;4151;51.110;7.020;2022-12-19T15:34:40;15.03;;;7.57;;
8219;SDS011;4151;51.110;7.020;2022-12-19T15:37:10;12.33;;;6.57;;
8219;SDS011;4151;51.110;7.020;2022-12-19T15:39:37;15.73;;;7.63;;
8219;SDS011;4151;51.110;7.020;2022-12-19T15:42:03;10.87;;;6.73;;
8219;SDS011;4151;51.110;7.020;2022-12-19T15:44:32;17.30;;;6.93;;
8219;SDS011;4151;51.110;7.020;2022-12-19T15:47:01;16.00;;;7.37;;
8219;SDS011;4151;51.110;7.020;2022-12-19T15:49:28;18.63;;;7.13;;
8219;SDS011;4151;51.110;7.020;2022-12-19T15:51:55;11.90;;;6.80;;
8219;SDS011;4151;51.110;7.020;2022-12-19T15:54:21;45.20;;;19.50;;
8219;SDS011;4151;51.110;7.020;2022-12-19T15:56:50;33.50;;;14.20;;
8219;SDS011;4151;51.110;7.020;2022-12-19T15:59:24;25.10;;;10.73;;
8219;SDS011;4151;51.110;7.020;2022-12-19T16:01:59;17.10;;;8.50;;
8219;SDS011;4151;51.110;7.020;2022-12-19T16:04:26;22.57;;;9.13;;
8219;SDS011;4151;51.110;7.020;2022-12-19T16:06:52;10.77;;;6.40;;
8219;SDS011;4151;51.110;7.020;2022-12-19T16:09:19;13.00;;;6.60;;
8219;SDS011;4151;51.110;7.020;2022-12-19T16:11:48;10.37;;;6.83;;
8219;SDS011;4151;51.110;7.020;2022-12-19T16:14:15;10.97;;;6.23;;
8219;SDS011;4151;51.110;7.020;2022-12-19T16:16:41;22.77;;;7.93;;
8219;SDS011;4151;51.110;7.020;2022-12-19T16:19:23;11.63;;;6.47;;
8219;SDS011;4151;51.110;7.020;2022-12-19T16:21:53;8.93;;;6.23;;
8219;SDS011;4151;51.110;7.020;2022-12-19T16:24:20;10.30;;;6.23;;
8219;SDS011;4151;51.110;7.020;2022-12-19T16:26:52;8.80;;;5.97;;
8219;SDS011;4151;51.110;7.020;2022-12-19T16:29:20;13.47;;;6.40;;
8219;SDS011;4151;51.110;7.020;2022-12-19T16:31:49;12.27;;;5.00;;
8219;SDS011;4151;51.110;7.020;2022-12-19T16:34:15;8.60;;;5.47;;
8219;SDS011;4151;51.110;7.020;2022-12-19T16:36:43;10.97;;;5.13;;
8219;SDS011;4151;51.110;7.020;2022-12-19T16:39:09;8.70;;;5.50;;
8219;SDS011;4151;51.110;7.020;2022-12-19T16:41:36;11.17;;;5.57;;
8219;SDS011;4151;51.110;7.020;2022-12-19T16:44:01;11.30;;;6.47;;
8219;SDS011;4151;51.110;7.020;2022-12-19T16:46:28;11.20;;;5.13;;
8219;SDS011;4151;51.110;7.020;2022-12-19T16:48:57;14.83;;;6.00;;
8219;SDS011;4151;51.110;7.020;2022-12-19T16:51:24;9.60;;;6.67;;
8219;SDS011;4151;51.110;7.020;2022-12-19T16:53:52;12.43;;;6.27;;
8219;SDS011;4151;51.110;7.020;2022-12-19T16:56:22;15.00;;;6.10;;
8219;SDS011;4151;51.110;7.020;2022-12-19T16:58:57;12.30;;;5.67;;
8219;SDS011;4151;51.110;7.020;2022-12-19T17:01:25;14.23;;;6.77;;
8219;SDS011;4151;51.110;7.020;2022-12-19T17:03:51;13.30;;;5.07;;
8219;SDS011;4151;51.110;7.020;2022-12-19T17:06:18;9.63;;;5.10;;
8219;SDS011;4151;51.110;7.020;2022-12-19T17:08:45;11.93;;;5.50;;
8219;SDS011;4151;51.110;7.020;2022-12-19T17:11:20;15.10;;;7.47;;
8219;SDS011;4151;51.110;7.020;2022-12-19T17:13:49;18.53;;;8.27;;